Time;durP1;ratioP1;P1;durP2;ratioP2;P2;SDS_P1;SDS_P2;PMS_P1;PMS_P2;Temp;Humidity;BMP_temperature;BMP_pressure;BME280_temperature;BME280_humidity;BME280_pressure;Samples;Min_cycle;Max_cycle;Signal;HPM_P1;HPM_P2
2021/06/18 00:00:35;;;;;;;6.57;6.07;;;25.90;99.90;;;;;;4973927;28;20486;-80
2021/06/18 00:03:03;;;;;;;7.63;5.03;;;25.80;99.90;;;;;;4969832;28;20505;-80
2021/06/18 00:05:32;;;;;;;4.90;4.60;;;25.80;99.90;;;;;;4973743;28;20455;-80
2021/06/18 00:08:00;;;;;;;5.57;5.17;;;25.80;99.90;;;;;;4970630;28;20471;-79
2021/06/18 00:10:28;;;;;;;5.27;4.87;;;25.80;99.90;;;;;;4971301;28;20486;-80
2021/06/18 00:12:57;;;;;;;5.60;5.10;;;25.70;99.90;;;;;;4967781;28;20471;-80
2021/06/18 00:15:27;;;;;;;7.23;4.50;;;25.70;99.90;;;;;;4971024;28;20467;-80
2021/06/18 00:17:55;;;;;;;6.43;5.10;;;25.60;99.90;;;;;;4970750;28;20513;-80
2021/06/18 00:20:23;;;;;;;5.77;5.10;;;25.50;99.90;;;;;;4969283;28;21070;-79
2021/06/18 00:22:52;;;;;;;6.33;5.00;;;25.50;99.90;;;;;;4952956;28;20440;-80
2021/06/18 00:25:20;;;;;;;5.30;4.90;;;25.50;99.90;;;;;;4973327;28;20467;-80
2021/06/18 00:27:48;;;;;;;5.77;5.37;;;25.50;99.90;;;;;;4969988;28;20479;-79
2021/06/18 00:30:17;;;;;;;5.50;5.10;;;25.50;99.90;;;;;;4982458;28;21093;-77
2021/06/18 00:32:49;;;;;;;4.60;4.30;;;25.50;99.90;;;;;;4968855;28;20459;-79
2021/06/18 00:35:17;;;;;;;5.80;5.40;;;25.50;99.90;;;;;;4963806;28;20471;-78
2021/06/18 00:37:45;;;;;;;6.17;5.60;;;25.40;99.90;;;;;;4968455;28;20509;-78
2021/06/18 00:40:14;;;;;;;6.57;5.97;;;25.40;99.90;;;;;;4969669;28;20483;-78
2021/06/18 00:42:43;;;;;;;8.07;6.07;;;25.40;99.90;;;;;;4968679;28;20455;-81
2021/06/18 00:45:12;;;;;;;6.27;5.37;;;25.40;99.90;;;;;;4972706;28;20541;-80
2021/06/18 00:47:48;;;;;;;5.07;4.60;;;25.30;99.90;;;;;;4978481;28;20520;-78
2021/06/18 00:50:18;;;;;;;5.60;5.20;;;25.30;99.90;;;;;;4973638;28;20804;-80
2021/06/18 00:52:48;;;;;;;6.10;5.60;;;25.30;99.90;;;;;;4972558;28;20482;-79
2021/06/18 00:55:16;;;;;;;6.03;5.60;;;25.20;99.90;;;;;;4972768;28;20569;-77
2021/06/18 00:57:45;;;;;;;6.27;5.67;;;25.20;99.90;;;;;;4973790;28;20459;-79
2021/06/18 01:00:15;;;;;;;6.50;5.90;;;25.20;99.90;;;;;;4972540;28;20474;-79
2021/06/18 01:02:44;;;;;;;5.57;5.10;;;25.20;99.90;;;;;;4989196;28;20455;-80
2021/06/18 01:05:16;;;;;;;7.67;5.97;;;25.20;99.90;;;;;;4966879;28;20463;-79
2021/06/18 01:07:53;;;;;;;5.13;4.70;;;25.10;99.90;;;;;;4970921;28;20455;-78
2021/06/18 01:10:31;;;;;;;6.57;5.90;;;25.10;99.90;;;;;;4969160;28;20471;-78
2021/06/18 01:13:08;;;;;;;5.60;5.10;;;25.00;99.90;;;;;;4967201;28;20494;-79
2021/06/18 01:15:47;;;;;;;5.90;5.50;;;25.00;99.90;;;;;;4968781;28;20490;-78
2021/06/18 01:18:20;;;;;;;6.17;5.40;;;24.90;99.90;;;;;;4969198;28;20451;-79
2021/06/18 01:21:02;;;;;;;5.60;5.20;;;25.00;99.90;;;;;;4974191;28;20983;-77
2021/06/18 01:23:48;;;;;;;6.10;5.60;;;24.90;99.90;;;;;;4965235;28;20455;-76
2021/06/18 01:26:33;;;;;;;6.17;5.60;;;24.90;99.90;;;;;;4968625;28;20459;-76
2021/06/18 01:29:03;;;;;;;7.53;5.70;;;24.90;99.90;;;;;;4975970;28;20462;-77
2021/06/18 01:31:33;;;;;;;6.23;5.60;;;24.80;99.90;;;;;;4985895;28;20907;-77
2021/06/18 01:34:10;;;;;;;5.40;4.97;;;24.80;99.90;;;;;;4970602;28;21017;-76
2021/06/18 01:36:39;;;;;;;6.87;6.27;;;24.70;99.90;;;;;;4972271;28;20513;-75
2021/06/18 01:39:08;;;;;;;5.53;5.20;;;24.70;99.90;;;;;;4969817;28;20868;-74
2021/06/18 01:41:37;;;;;;;4.97;4.67;;;24.70;99.90;;;;;;4964532;28;20729;-75
2021/06/18 01:44:08;;;;;;;6.13;5.47;;;24.60;99.90;;;;;;4982957;28;20491;-76
2021/06/18 01:46:38;;;;;;;4.97;4.57;;;24.60;99.90;;;;;;4969644;28;20517;-76
2021/06/18 01:49:09;;;;;;;5.33;4.83;;;24.60;99.90;;;;;;4972168;28;20451;-77
2021/06/18 01:51:38;;;;;;;5.43;4.93;;;24.60;99.90;;;;;;4971549;28;20514;-76
2021/06/18 01:54:09;;;;;;;5.80;5.30;;;24.60;99.90;;;;;;4970938;28;20460;-76
2021/06/18 01:56:39;;;;;;;7.53;5.80;;;24.50;99.90;;;;;;4972150;28;21025;-77
2021/06/18 01:59:08;;;;;;;5.97;5.40;;;24.50;99.90;;;;;;4971835;28;20475;-77
2021/06/18 02:01:41;;;;;;;6.30;5.83;;;24.50;99.90;;;;;;4978422;28;20499;-76
2021/06/18 02:04:13;;;;;;;5.57;5.07;;;24.50;99.90;;;;;;4954870;28;20550;-77
2021/06/18 02:06:43;;;;;;;6.00;5.47;;;24.50;99.90;;;;;;4964036;28;21038;-76
2021/06/18 02:09:14;;;;;;;6.33;5.43;;;24.50;99.90;;;;;;4968788;28;20447;-76
2021/06/18 02:11:43;;;;;;;6.33;4.87;;;24.50;99.90;;;;;;4983229;28;20506;-76
2021/06/18 02:14:17;;;;;;;8.07;6.37;;;24.50;99.90;;;;;;4971487;28;20455;-76
2021/06/18 02:16:51;;;;;;;5.50;5.10;;;24.50;99.90;;;;;;4969829;28;20463;-76
2021/06/18 02:19:22;;;;;;;5.50;5.10;;;24.40;99.90;;;;;;4970257;28;20447;-76
2021/06/18 02:21:53;;;;;;;5.40;5.00;;;24.40;99.90;;;;;;4969593;28;20487;-76
2021/06/18 02:24:24;;;;;;;5.37;4.87;;;24.40;99.90;;;;;;4969895;28;20463;-76
2021/06/18 02:26:53;;;;;;;4.70;4.40;;;24.40;99.90;;;;;;4975640;28;21040;-77
2021/06/18 02:29:23;;;;;;;5.20;4.70;;;24.40;99.90;;;;;;4969156;28;20871;-76
2021/06/18 02:31:53;;;;;;;5.53;5.07;;;24.40;99.90;;;;;;4971687;28;20539;-77
2021/06/18 02:34:21;;;;;;;4.90;4.40;;;24.40;99.90;;;;;;4967681;28;20455;-76
2021/06/18 02:36:49;;;;;;;5.20;4.70;;;24.30;99.90;;;;;;4968340;28;20487;-76
2021/06/18 02:39:18;;;;;;;5.40;3.90;;;24.30;99.90;;;;;;4969624;28;20545;-77
2021/06/18 02:41:47;;;;;;;4.20;3.80;;;24.30;99.90;;;;;;4971561;28;20459;-78
2021/06/18 02:44:15;;;;;;;4.87;4.47;;;24.20;99.90;;;;;;4970315;28;20463;-78
2021/06/18 02:46:54;;;;;;;4.70;4.30;;;24.30;99.90;;;;;;4958564;28;21071;-78
2021/06/18 02:49:29;;;;;;;4.97;4.53;;;24.30;99.90;;;;;;4956631;28;20509;-78
2021/06/18 02:52:03;;;;;;;5.77;5.17;;;24.30;99.90;;;;;;4968853;28;20852;-77
2021/06/18 02:54:35;;;;;;;5.20;4.80;;;24.30;99.90;;;;;;4972435;28;20463;-77
2021/06/18 02:57:08;;;;;;;5.53;5.03;;;24.30;99.90;;;;;;4973286;28;20486;-80
2021/06/18 02:59:43;;;;;;;7.00;6.30;;;24.20;99.90;;;;;;4970720;28;20467;-78
2021/06/18 03:02:16;;;;;;;7.40;6.80;;;24.20;99.90;;;;;;4959914;28;20446;-78
2021/06/18 03:04:46;;;;;;;5.47;5.07;;;24.20;99.90;;;;;;4971791;28;20501;-78
2021/06/18 03:07:18;;;;;;;6.10;5.70;;;24.10;99.90;;;;;;4970506;28;20490;-77
2021/06/18 03:09:50;;;;;;;7.03;6.37;;;24.00;99.90;;;;;;4971101;28;20475;-76
2021/06/18 03:12:22;;;;;;;6.63;6.03;;;24.00;99.90;;;;;;4965533;28;20471;-77
2021/06/18 03:14:52;;;;;;;6.53;5.93;;;24.00;99.90;;;;;;4985729;28;20462;-77
2021/06/18 03:17:22;;;;;;;6.13;5.50;;;24.00;99.90;;;;;;4967853;28;20451;-78
2021/06/18 03:19:54;;;;;;;5.63;5.23;;;24.00;99.90;;;;;;4969855;28;20474;-76
2021/06/18 03:22:24;;;;;;;5.63;5.13;;;24.00;99.90;;;;;;4968847;28;20962;-77
2021/06/18 03:24:55;;;;;;;6.17;5.67;;;24.00;99.90;;;;;;4969490;28;20462;-77
2021/06/18 03:27:24;;;;;;;6.17;5.57;;;24.00;99.90;;;;;;4969092;28;20459;-77
2021/06/18 03:29:54;;;;;;;7.10;6.10;;;24.00;99.90;;;;;;4970116;28;20512;-77
2021/06/18 03:32:25;;;;;;;7.57;5.90;;;24.00;99.90;;;;;;4961393;28;20507;-78
2021/06/18 03:34:54;;;;;;;6.30;5.80;;;23.90;99.90;;;;;;4979893;28;20462;-78
2021/06/18 03:37:22;;;;;;;5.30;5.00;;;24.00;99.90;;;;;;4975921;28;20455;-79
2021/06/18 03:39:51;;;;;;;5.87;5.37;;;23.90;99.90;;;;;;4954133;28;20960;-78
2021/06/18 03:42:20;;;;;;;6.90;6.30;;;23.90;99.90;;;;;;4966080;28;20498;-77
2021/06/18 03:44:50;;;;;;;6.10;5.03;;;23.90;99.90;;;;;;4970415;28;20463;-78
2021/06/18 03:47:19;;;;;;;6.23;5.70;;;23.80;99.90;;;;;;4964506;28;20932;-78
2021/06/18 03:49:53;;;;;;;5.57;5.07;;;23.80;99.90;;;;;;4980416;28;20914;-77
2021/06/18 03:52:21;;;;;;;5.93;5.43;;;23.80;99.90;;;;;;4980494;28;20458;-77
2021/06/18 03:54:49;;;;;;;6.30;5.70;;;23.80;99.90;;;;;;4970473;28;20459;-77
2021/06/18 03:57:19;;;;;;;5.00;4.60;;;23.80;99.90;;;;;;4969169;28;20443;-77
2021/06/18 03:59:49;;;;;;;5.17;4.67;;;23.80;99.90;;;;;;4969088;28;20467;-79
2021/06/18 04:02:19;;;;;;;5.97;5.37;;;23.80;99.90;;;;;;4974738;28;20895;-78
2021/06/18 04:04:50;;;;;;;5.40;4.67;;;23.80;99.90;;;;;;4969302;28;20800;-78
2021/06/18 04:07:21;;;;;;;5.80;5.30;;;23.90;99.90;;;;;;4960113;28;21026;-77
2021/06/18 04:09:50;;;;;;;6.20;5.40;;;23.90;99.90;;;;;;4951800;28;20878;-78
2021/06/18 04:12:20;;;;;;;5.23;4.63;;;23.90;99.90;;;;;;4969464;28;20447;-78
2021/06/18 04:14:48;;;;;;;5.07;4.57;;;24.00;99.90;;;;;;4968260;28;20505;-78
2021/06/18 04:17:17;;;;;;;5.10;4.60;;;24.00;99.90;;;;;;4961826;28;21001;-78
2021/06/18 04:19:47;;;;;;;7.50;5.30;;;24.00;99.90;;;;;;4975730;28;20467;-78
2021/06/18 04:22:24;;;;;;;5.93;5.00;;;24.00;99.90;;;;;;4967547;28;20895;-77
2021/06/18 04:24:54;;;;;;;4.77;4.37;;;24.00;99.90;;;;;;4959641;28;20470;-77
2021/06/18 04:27:22;;;;;;;4.70;4.40;;;24.10;99.90;;;;;;4969843;28;20521;-79
2021/06/18 04:29:50;;;;;;;5.80;4.20;;;24.10;99.90;;;;;;4971319;28;20480;-76
2021/06/18 04:32:19;;;;;;;5.63;5.13;;;24.10;99.90;;;;;;4966988;28;20461;-76
2021/06/18 04:34:48;;;;;;;5.53;5.07;;;24.20;99.90;;;;;;4960307;28;20471;-77
2021/06/18 04:37:16;;;;;;;6.83;5.83;;;24.20;99.90;;;;;;4968122;28;20521;-78
2021/06/18 04:39:44;;;;;;;5.57;5.07;;;24.20;99.90;;;;;;4970855;28;20541;-78
2021/06/18 04:42:14;;;;;;;5.50;5.00;;;24.20;99.90;;;;;;4968064;28;20491;-78
2021/06/18 04:44:42;;;;;;;5.47;5.13;;;24.20;99.90;;;;;;4961769;28;20450;-77
2021/06/18 04:47:10;;;;;;;5.90;5.40;;;24.20;99.90;;;;;;4968702;28;20451;-77
2021/06/18 04:49:38;;;;;;;6.87;6.27;;;24.20;99.90;;;;;;4966182;28;20470;-79
2021/06/18 04:52:07;;;;;;;5.70;5.20;;;24.30;99.90;;;;;;4971188;28;20450;-79
2021/06/18 04:54:35;;;;;;;5.90;5.40;;;24.30;99.90;;;;;;4970235;28;20483;-75
2021/06/18 04:57:04;;;;;;;6.00;5.40;;;24.30;99.90;;;;;;4972977;28;20535;-76
2021/06/18 04:59:37;;;;;;;6.53;5.60;;;24.30;99.90;;;;;;4971034;28;20458;-78
2021/06/18 05:02:05;;;;;;;6.23;5.47;;;24.30;99.90;;;;;;4972340;28;20455;-76
2021/06/18 05:04:34;;;;;;;6.30;5.50;;;24.40;99.90;;;;;;4970226;28;20487;-75
2021/06/18 05:07:02;;;;;;;6.63;5.50;;;24.40;99.90;;;;;;4970750;28;20467;-77
2021/06/18 05:09:30;;;;;;;6.60;6.00;;;24.40;99.90;;;;;;4969741;28;20549;-75
2021/06/18 05:11:58;;;;;;;5.87;5.27;;;24.40;99.90;;;;;;4972077;28;20824;-76
2021/06/18 05:14:26;;;;;;;9.03;6.30;;;24.50;99.90;;;;;;4968562;28;20538;-72
2021/06/18 05:16:56;;;;;;;7.07;5.20;;;24.50;99.90;;;;;;4967231;28;21266;-72
2021/06/18 05:19:24;;;;;;;6.20;5.60;;;24.40;99.90;;;;;;4971421;28;20458;-72
2021/06/18 05:21:52;;;;;;;5.00;4.53;;;24.40;99.90;;;;;;4971854;28;20459;-73
2021/06/18 05:24:20;;;;;;;6.40;5.80;;;24.40;99.90;;;;;;4967781;28;20505;-72
2021/06/18 05:26:49;;;;;;;6.27;5.77;;;24.30;99.90;;;;;;4969470;28;21038;-73
2021/06/18 05:29:17;;;;;;;6.07;5.43;;;24.40;99.90;;;;;;4967881;28;20451;-72
2021/06/18 05:31:45;;;;;;;5.40;5.00;;;24.40;99.90;;;;;;4970866;28;20463;-74
2021/06/18 05:34:16;;;;;;;5.33;4.67;;;24.40;99.90;;;;;;4963928;28;20483;-73
2021/06/18 05:36:45;;;;;;;5.37;4.80;;;24.40;99.90;;;;;;4967068;28;20582;-73
2021/06/18 05:39:13;;;;;;;5.00;4.40;;;24.40;99.90;;;;;;4970170;28;20459;-72
2021/06/18 05:41:42;;;;;;;6.40;5.90;;;24.50;99.90;;;;;;4970292;28;20554;-74
2021/06/18 05:44:10;;;;;;;6.00;5.50;;;24.50;99.90;;;;;;4962220;28;20502;-73
2021/06/18 05:46:38;;;;;;;6.37;5.53;;;24.50;99.90;;;;;;4968505;28;20490;-74
2021/06/18 05:49:07;;;;;;;5.17;4.67;;;24.50;99.90;;;;;;4967766;28;20463;-74
2021/06/18 05:51:36;;;;;;;5.17;4.77;;;24.50;99.90;;;;;;4968743;28;20471;-74
2021/06/18 05:54:05;;;;;;;5.47;4.97;;;24.60;99.90;;;;;;4969643;28;20463;-73
2021/06/18 05:56:33;;;;;;;5.90;4.80;;;24.70;99.90;;;;;;4961366;28;20486;-74
2021/06/18 05:59:01;;;;;;;5.33;4.60;;;24.70;99.90;;;;;;4965211;28;20463;-73
2021/06/18 06:01:29;;;;;;;5.60;5.00;;;24.70;99.90;;;;;;4971342;28;20498;-73
2021/06/18 06:03:59;;;;;;;6.50;4.13;;;24.70;99.90;;;;;;4970661;28;20943;-73
2021/06/18 06:06:28;;;;;;;5.20;4.50;;;24.80;99.90;;;;;;4967997;28;20908;-74
2021/06/18 06:08:58;;;;;;;4.80;3.80;;;24.80;99.90;;;;;;4968050;28;20459;-73
2021/06/18 06:11:27;;;;;;;4.03;3.10;;;24.80;99.90;;;;;;4965836;28;20479;-73
2021/06/18 06:14:00;;;;;;;3.60;3.30;;;24.90;99.90;;;;;;4968194;28;20565;-78
2021/06/18 06:16:29;;;;;;;2.70;2.50;;;25.00;99.90;;;;;;4964335;28;20517;-77
2021/06/18 06:18:57;;;;;;;4.07;3.07;;;25.00;99.90;;;;;;4967832;28;20459;-80
2021/06/18 06:21:25;;;;;;;4.10;3.80;;;25.10;99.90;;;;;;4969142;28;21356;-77
2021/06/18 06:23:53;;;;;;;4.50;3.50;;;25.10;99.90;;;;;;4968708;28;20896;-78
2021/06/18 06:26:23;;;;;;;4.73;3.00;;;25.20;99.90;;;;;;4966516;28;20912;-78
2021/06/18 06:28:51;;;;;;;3.37;3.07;;;25.20;99.90;;;;;;4968167;28;20460;-79
2021/06/18 06:31:20;;;;;;;5.40;3.43;;;25.30;99.90;;;;;;4969112;28;20537;-78
2021/06/18 06:33:48;;;;;;;5.90;3.47;;;25.30;99.90;;;;;;4970971;28;20459;-76
2021/06/18 06:36:16;;;;;;;3.97;3.40;;;25.30;99.90;;;;;;4968797;28;20522;-76
2021/06/18 06:38:44;;;;;;;3.73;3.23;;;25.30;99.90;;;;;;4967500;28;20451;-77
2021/06/18 06:41:13;;;;;;;4.10;3.10;;;25.30;99.90;;;;;;4968894;28;21037;-76
2021/06/18 06:43:42;;;;;;;5.10;3.63;;;25.40;99.90;;;;;;4967359;28;20459;-79
2021/06/18 06:46:11;;;;;;;5.03;2.83;;;25.40;99.90;;;;;;4971300;28;20529;-80
2021/06/18 06:48:39;;;;;;;5.53;3.50;;;25.50;99.90;;;;;;4972829;28;20463;-77
2021/06/18 06:51:07;;;;;;;4.20;3.00;;;25.50;99.90;;;;;;4968324;28;21287;-79
2021/06/18 06:53:35;;;;;;;4.37;2.80;;;25.60;99.90;;;;;;4971287;28;20443;-77
2021/06/18 06:56:03;;;;;;;3.53;2.60;;;25.60;99.90;;;;;;4967892;28;20561;-80
2021/06/18 06:58:32;;;;;;;4.10;2.90;;;25.70;99.90;;;;;;4969291;28;20521;-79
2021/06/18 07:01:01;;;;;;;3.40;3.10;;;25.70;99.90;;;;;;4966421;28;20482;-78
2021/06/18 07:03:29;;;;;;;3.43;3.10;;;25.80;99.90;;;;;;4970936;28;20459;-79
2021/06/18 07:05:57;;;;;;;6.53;2.70;;;25.90;99.90;;;;;;4970026;28;20520;-78
2021/06/18 07:08:26;;;;;;;3.90;3.30;;;25.90;99.90;;;;;;4966782;28;20855;-79
2021/06/18 07:10:54;;;;;;;2.90;2.70;;;25.90;99.90;;;;;;4967720;28;20988;-78
2021/06/18 07:13:23;;;;;;;3.13;2.80;;;26.00;99.90;;;;;;4968564;28;21177;-79
2021/06/18 07:15:53;;;;;;;4.73;2.77;;;26.10;99.90;;;;;;4967793;28;21015;-78
2021/06/18 07:18:24;;;;;;;3.10;2.47;;;26.10;99.90;;;;;;4959809;28;20467;-79
2021/06/18 07:20:52;;;;;;;4.70;3.13;;;26.10;99.90;;;;;;4968469;28;20530;-78
2021/06/18 07:23:20;;;;;;;5.27;3.70;;;26.10;99.90;;;;;;4972555;28;20462;-80
2021/06/18 07:25:49;;;;;;;5.17;3.27;;;26.20;99.90;;;;;;4967616;28;20832;-79
2021/06/18 07:28:17;;;;;;;3.60;3.30;;;26.20;99.90;;;;;;4968093;28;20470;-77
2021/06/18 07:30:45;;;;;;;3.27;2.97;;;26.20;99.90;;;;;;4966271;28;20574;-78
2021/06/18 07:33:13;;;;;;;3.07;2.77;;;26.30;99.90;;;;;;4970107;28;20518;-79
2021/06/18 07:35:43;;;;;;;3.43;2.80;;;26.30;99.90;;;;;;4967807;28;20486;-77
2021/06/18 07:38:11;;;;;;;3.83;2.93;;;26.40;99.90;;;;;;4964619;28;20962;-77
2021/06/18 07:40:39;;;;;;;3.50;3.20;;;26.40;99.90;;;;;;4966997;28;20537;-79
2021/06/18 07:43:08;;;;;;;2.80;2.60;;;26.40;99.90;;;;;;4966929;28;20451;-79
2021/06/18 07:45:36;;;;;;;3.50;3.20;;;26.50;99.90;;;;;;4964550;28;20465;-75
2021/06/18 07:48:09;;;;;;;3.37;2.50;;;26.60;99.90;;;;;;4969447;28;20451;-79
2021/06/18 07:50:38;;;;;;;4.17;3.80;;;26.60;99.90;;;;;;4967442;28;20499;-79
2021/06/18 07:53:07;;;;;;;3.20;3.00;;;26.60;99.90;;;;;;4968270;28;20463;-78
2021/06/18 07:55:36;;;;;;;3.77;3.40;;;26.60;99.90;;;;;;4974311;28;20530;-79
2021/06/18 07:58:04;;;;;;;4.33;3.63;;;26.60;99.90;;;;;;4968457;28;20463;-78
2021/06/18 08:00:32;;;;;;;5.97;3.30;;;26.70;99.90;;;;;;4966685;28;20554;-78
2021/06/18 08:03:02;;;;;;;2.80;2.60;;;26.80;99.90;;;;;;4969217;28;20465;-78
2021/06/18 08:05:30;;;;;;;3.93;3.30;;;26.80;99.90;;;;;;4969743;28;21136;-80
2021/06/18 08:07:59;;;;;;;3.80;3.50;;;26.80;99.90;;;;;;4966862;28;20447;-78
2021/06/18 08:10:48;;;;;;;4.13;3.73;;;26.90;99.90;;;;;;4967420;28;20490;-77
2021/06/18 08:13:16;;;;;;;3.70;3.40;;;26.90;99.90;;;;;;4965926;28;20459;-79
2021/06/18 08:15:45;;;;;;;3.80;3.50;;;26.90;99.90;;;;;;4969255;28;20467;-79
2021/06/18 08:18:13;;;;;;;3.83;3.53;;;27.00;99.90;;;;;;4966129;28;21142;-78
2021/06/18 08:20:41;;;;;;;4.27;3.63;;;27.10;99.90;;;;;;4967285;28;20550;-79
2021/06/18 08:23:09;;;;;;;3.97;3.77;;;27.10;99.90;;;;;;4967263;28;20459;-80
2021/06/18 08:25:37;;;;;;;4.00;3.53;;;27.20;99.90;;;;;;4969532;28;20458;-79
2021/06/18 08:28:07;;;;;;;3.87;3.53;;;27.20;99.90;;;;;;4972757;28;20452;-79
2021/06/18 08:30:35;;;;;;;4.63;4.33;;;27.30;99.90;;;;;;4972173;28;20470;-79
2021/06/18 08:33:03;;;;;;;3.47;3.17;;;27.20;99.90;;;;;;4972155;28;20502;-79
2021/06/18 08:35:32;;;;;;;7.63;3.40;;;27.30;99.90;;;;;;4972227;28;20477;-78
2021/06/18 08:38:02;;;;;;;3.80;3.30;;;27.30;99.90;;;;;;4969711;28;20454;-80
2021/06/18 08:40:31;;;;;;;3.87;3.50;;;27.30;99.90;;;;;;4968529;28;20908;-80
2021/06/18 08:43:00;;;;;;;5.30;4.80;;;27.30;99.90;;;;;;4970528;28;20443;-79
2021/06/18 08:45:30;;;;;;;3.93;3.73;;;27.40;99.90;;;;;;4970751;28;21052;-79
2021/06/18 08:47:58;;;;;;;3.63;3.33;;;27.40;99.90;;;;;;4969071;28;20439;-79
2021/06/18 08:50:27;;;;;;;3.80;3.47;;;27.50;99.90;;;;;;4972022;28;20482;-78
2021/06/18 08:52:57;;;;;;;4.87;4.43;;;27.60;99.90;;;;;;4965951;28;20455;-79
2021/06/18 08:55:27;;;;;;;3.93;3.57;;;27.60;99.90;;;;;;4971728;28;21052;-79
2021/06/18 08:57:58;;;;;;;4.87;4.47;;;27.60;99.90;;;;;;4968345;28;21001;-79
2021/06/18 09:00:29;;;;;;;4.17;3.83;;;27.60;99.90;;;;;;4977905;28;20482;-78
2021/06/18 09:02:59;;;;;;;5.20;4.83;;;27.60;99.90;;;;;;4969094;28;20462;-79
2021/06/18 09:05:29;;;;;;;4.50;4.20;;;27.70;99.90;;;;;;4967793;28;22650;-78
2021/06/18 09:08:00;;;;;;;5.00;4.50;;;27.80;99.90;;;;;;4980546;28;20535;-78
2021/06/18 09:10:40;;;;;;;5.97;4.90;;;27.80;99.90;;;;;;4969405;28;20475;-78
2021/06/18 09:13:13;;;;;;;4.10;3.80;;;27.80;99.90;;;;;;4973122;28;20925;-78
2021/06/18 09:15:45;;;;;;;5.33;4.13;;;27.90;99.90;;;;;;4980807;28;20481;-80
2021/06/18 09:18:32;;;;;;;4.60;4.20;;;27.90;99.90;;;;;;4973512;28;20482;-78
2021/06/18 09:21:21;;;;;;;4.47;4.07;;;28.00;99.90;;;;;;4976035;28;20804;-81
2021/06/18 09:23:51;;;;;;;4.70;4.40;;;28.00;99.90;;;;;;4965913;28;20487;-78
2021/06/18 09:26:23;;;;;;;4.33;4.03;;;28.00;99.90;;;;;;4966115;28;20455;-78
2021/06/18 09:29:07;;;;;;;4.30;3.90;;;28.10;99.90;;;;;;4970255;28;20478;-81
2021/06/18 09:31:39;;;;;;;9.70;4.57;;;28.10;99.90;;;;;;4969579;28;20870;-78
2021/06/18 09:34:11;;;;;;;8.00;4.30;;;28.20;99.90;;;;;;4969962;28;20454;-79
2021/06/18 09:36:40;;;;;;;4.20;3.90;;;28.20;99.90;;;;;;4970100;28;20479;-79
2021/06/18 09:39:09;;;;;;;5.23;4.73;;;28.20;99.90;;;;;;4968560;28;20470;-77
2021/06/18 09:41:40;;;;;;;4.30;4.00;;;28.20;99.90;;;;;;4965766;28;20502;-80
2021/06/18 09:44:10;;;;;;;4.83;4.43;;;28.20;99.90;;;;;;4965762;28;20543;-79
2021/06/18 09:46:52;;;;;;;7.63;5.07;;;28.40;99.90;;;;;;4964867;28;21096;-79
2021/06/18 09:49:40;;;;;;;17.70;6.53;;;28.40;99.90;;;;;;4965357;28;20459;-79
2021/06/18 09:52:11;;;;;;;5.40;4.60;;;28.40;99.90;;;;;;4964738;28;20471;-80
2021/06/18 09:54:42;;;;;;;5.90;5.30;;;28.30;99.90;;;;;;4964350;28;20490;-76
2021/06/18 09:57:14;;;;;;;9.50;7.53;;;28.40;99.90;;;;;;4963672;28;20483;-78
2021/06/18 09:59:46;;;;;;;6.23;5.27;;;28.40;99.90;;;;;;4963723;28;20484;-80
2021/06/18 10:02:17;;;;;;;6.40;4.10;;;28.40;99.90;;;;;;4960364;28;22297;-79
2021/06/18 10:04:48;;;;;;;4.50;4.20;;;28.50;99.90;;;;;;4966137;28;20451;-79
2021/06/18 10:07:17;;;;;;;5.00;4.50;;;28.50;99.90;;;;;;4964466;28;20458;-79
2021/06/18 10:09:46;;;;;;;5.77;5.23;;;28.50;99.90;;;;;;4962379;28;20494;-78
2021/06/18 10:12:14;;;;;;;5.23;4.67;;;28.60;99.90;;;;;;4958992;28;20451;-80
2021/06/18 10:14:43;;;;;;;4.93;4.63;;;28.60;99.90;;;;;;4964848;28;20459;-79
2021/06/18 10:17:11;;;;;;;5.70;4.27;;;28.70;99.90;;;;;;4965401;28;20916;-80
2021/06/18 10:19:41;;;;;;;4.53;4.20;;;28.70;99.90;;;;;;4960965;28;20471;-80
2021/06/18 10:22:12;;;;;;;4.80;4.40;;;28.70;99.90;;;;;;4963765;28;20449;-81
2021/06/18 10:24:45;;;;;;;5.30;4.90;;;28.70;99.90;;;;;;4960723;28;20650;-79
2021/06/18 10:27:18;;;;;;;4.83;4.33;;;28.80;99.90;;;;;;4964923;28;20593;-79
2021/06/18 10:29:47;;;;;;;4.47;3.60;;;28.70;99.90;;;;;;4962064;28;20483;-78
2021/06/18 10:32:36;;;;;;;3.30;3.00;;;28.70;99.90;;;;;;4973663;28;20475;-81
2021/06/18 10:35:07;;;;;;;3.67;3.47;;;28.80;99.90;;;;;;4966747;28;20455;-79
2021/06/18 10:37:36;;;;;;;4.27;3.73;;;28.80;99.90;;;;;;4978845;28;20562;-80
2021/06/18 10:40:11;;;;;;;7.77;5.07;;;28.80;99.90;;;;;;4970480;28;20507;-78
2021/06/18 10:43:11;;;;;;;4.40;4.10;;;28.90;99.90;;;;;;4969537;28;20509;-79
2021/06/18 10:46:05;;;;;;;4.23;3.83;;;28.90;99.90;;;;;;4965852;28;20443;-75
2021/06/18 10:49:12;;;;;;;3.47;3.17;;;28.90;99.90;;;;;;4961049;28;20484;-79
2021/06/18 10:51:49;;;;;;;4.07;3.23;;;29.00;99.90;;;;;;4967526;28;20483;-80
2021/06/18 10:54:29;;;;;;;3.27;2.97;;;29.00;99.90;;;;;;4969164;28;20514;-79
2021/06/18 10:57:05;;;;;;;3.80;3.50;;;29.00;99.90;;;;;;4970951;28;20482;-77
2021/06/18 10:59:39;;;;;;;3.70;3.37;;;29.10;99.90;;;;;;4965034;28;20525;-78
2021/06/18 11:02:37;;;;;;;3.00;2.80;;;29.10;99.90;;;;;;4970433;28;20462;-77
2021/06/18 11:05:08;;;;;;;2.87;2.50;;;29.20;99.90;;;;;;4969955;28;20459;-80
2021/06/18 11:07:40;;;;;;;2.90;2.70;;;29.20;99.90;;;;;;4960014;28;20475;-78
2021/06/18 11:10:12;;;;;;;2.33;2.10;;;29.20;99.90;;;;;;4960647;28;20501;-79
2021/06/18 11:12:46;;;;;;;6.37;3.97;;;29.20;99.90;;;;;;4961984;28;20968;-81
2021/06/18 11:15:37;;;;;;;3.70;3.50;;;29.30;99.90;;;;;;4962540;28;20459;-78
2021/06/18 11:18:13;;;;;;;4.00;3.50;;;29.30;99.90;;;;;;4968672;28;21021;-79
2021/06/18 11:20:53;;;;;;;3.00;2.77;;;29.30;99.90;;;;;;4969791;28;20470;-78
2021/06/18 11:23:31;;;;;;;5.97;3.87;;;29.30;99.90;;;;;;4967899;28;20466;-78
2021/06/18 11:26:02;;;;;;;3.83;3.53;;;29.40;99.90;;;;;;4961859;28;20812;-74
2021/06/18 11:28:47;;;;;;;3.60;3.30;;;29.40;99.90;;;;;;4963167;28;20496;-77
2021/06/18 11:31:22;;;;;;;6.13;4.03;;;29.40;99.90;;;;;;4959511;28;20577;-80
2021/06/18 11:33:58;;;;;;;3.93;3.63;;;29.40;99.90;;;;;;4966505;28;20961;-78
2021/06/18 11:36:47;;;;;;;3.63;3.33;;;29.40;99.90;;;;;;4964149;28;20447;-78
2021/06/18 11:39:27;;;;;;;3.93;3.60;;;29.50;99.90;;;;;;4967830;28;20876;-77
2021/06/18 11:42:07;;;;;;;4.30;3.03;;;29.50;99.90;;;;;;4963988;28;20470;-78
2021/06/18 11:44:38;;;;;;;3.43;3.13;;;29.50;99.90;;;;;;4967739;28;20553;-81
2021/06/18 11:47:08;;;;;;;3.53;3.10;;;29.50;99.90;;;;;;4969408;28;20447;-80
2021/06/18 11:49:43;;;;;;;4.13;3.20;;;29.50;99.90;;;;;;4966599;28;20464;-78
2021/06/18 11:52:13;;;;;;;4.67;3.20;;;29.50;99.90;;;;;;4971054;28;20462;-80
2021/06/18 11:54:44;;;;;;;3.63;3.33;;;29.50;99.90;;;;;;4965634;28;21038;-78
2021/06/18 11:57:17;;;;;;;4.87;4.27;;;29.50;99.90;;;;;;4966692;28;20487;-79
2021/06/18 11:59:53;;;;;;;3.83;3.63;;;29.50;99.90;;;;;;4965819;28;21186;-78
2021/06/18 12:02:22;;;;;;;3.80;3.40;;;29.30;99.90;;;;;;4968360;28;20470;-77
2021/06/18 12:05:17;;;;;;;5.47;3.70;;;29.60;99.90;;;;;;4970088;28;20474;-78
2021/06/18 12:07:46;;;;;;;3.47;2.30;;;29.60;99.90;;;;;;4962369;28;20479;-77
2021/06/18 12:10:25;;;;;;;4.77;3.43;;;29.60;99.90;;;;;;4972096;28;20475;-77
2021/06/18 12:12:56;;;;;;;24.13;3.60;;;29.60;99.90;;;;;;4967966;28;20454;-79
2021/06/18 12:15:28;;;;;;;3.00;2.80;;;29.70;99.90;;;;;;4954066;28;20482;-81
2021/06/18 12:17:58;;;;;;;3.40;3.10;;;29.70;99.90;;;;;;4969845;28;20470;-78
2021/06/18 12:20:30;;;;;;;6.03;3.20;;;29.70;99.90;;;;;;4967248;28;20534;-77
2021/06/18 12:22:59;;;;;;;3.60;3.30;;;29.70;99.90;;;;;;4965591;28;20455;-77
2021/06/18 12:25:29;;;;;;;5.30;3.70;;;29.60;99.90;;;;;;4956225;28;20458;-79
2021/06/18 12:27:59;;;;;;;4.20;3.50;;;29.60;99.90;;;;;;4967195;28;20455;-76
2021/06/18 12:30:31;;;;;;;3.23;2.93;;;29.60;99.90;;;;;;4968118;28;20912;-75
2021/06/18 12:33:00;;;;;;;3.47;3.27;;;29.70;99.90;;;;;;4966649;28;20513;-76
2021/06/18 12:35:41;;;;;;;3.90;3.60;;;29.70;99.90;;;;;;4968169;28;20545;-76
2021/06/18 12:38:11;;;;;;;3.77;3.30;;;29.80;99.90;;;;;;4967400;28;20510;-77
2021/06/18 12:40:47;;;;;;;2.70;2.50;;;29.80;99.90;;;;;;4965560;28;21057;-77
2021/06/18 12:43:17;;;;;;;4.57;2.30;;;29.90;99.90;;;;;;4964171;28;20974;-78
2021/06/18 12:45:48;;;;;;;3.33;2.77;;;29.90;99.90;;;;;;4967580;28;20451;-77
2021/06/18 12:48:19;;;;;;;3.07;2.67;;;29.90;99.90;;;;;;4965488;28;20451;-77
2021/06/18 12:50:50;;;;;;;3.53;3.10;;;29.90;99.90;;;;;;4966331;28;20537;-77
2021/06/18 12:53:28;;;;;;;3.93;3.27;;;30.00;99.90;;;;;;4965658;28;20462;-77
2021/06/18 12:56:11;;;;;;;5.13;3.10;;;30.00;99.90;;;;;;4968654;28;20462;-80
2021/06/18 12:58:40;;;;;;;4.80;3.77;;;30.00;99.90;;;;;;4966997;28;20475;-77
2021/06/18 13:01:08;;;;;;;5.00;2.70;;;30.00;99.90;;;;;;4967234;28;20487;-79
2021/06/18 13:03:55;;;;;;;2.90;2.10;;;30.00;99.90;;;;;;4966759;28;20450;-78
2021/06/18 13:06:25;;;;;;;3.40;2.70;;;30.10;99.90;;;;;;4968237;28;20506;-77
2021/06/18 13:08:55;;;;;;;3.17;2.90;;;30.10;99.90;;;;;;4967973;28;20810;-79